sensor_id;sensor_type;location;lat;lon;timestamp;temperature;humidity
51765;DHT22;37835;53.256;6.456;2022-11-20T00:00:28;-0.60;99.90
51765;DHT22;37835;53.256;6.456;2022-11-20T00:05:20;-0.30;99.90
51765;DHT22;37835;53.256;6.456;2022-11-20T00:07:46;-0.60;99.90
51765;DHT22;37835;53.256;6.456;2022-11-20T00:10:12;-1.30;99.90
51765;DHT22;37835;53.256;6.456;2022-11-20T00:12:38;-1.40;99.90
51765;DHT22;37835;53.256;6.456;2022-11-20T00:15:04;-1.50;99.90
51765;DHT22;37835;53.256;6.456;2022-11-20T00:17:29;-0.30;99.90
51765;DHT22;37835;53.256;6.456;2022-11-20T00:19:55;-0.30;99.90
51765;DHT22;37835;53.256;6.456;2022-11-20T00:22:21;-0.20;99.90
51765;DHT22;37835;53.256;6.456;2022-11-20T00:24:46;-0.20;99.90
51765;DHT22;37835;53.256;6.456;2022-11-20T00:27:12;1.60;99.90
51765;DHT22;37835;53.256;6.456;2022-11-20T00:29:37;-0.20;99.90
51765;DHT22;37835;53.256;6.456;2022-11-20T00:32:03;-0.20;99.90
51765;DHT22;37835;53.256;6.456;2022-11-20T00:34:29;-0.20;99.90
51765;DHT22;37835;53.256;6.456;2022-11-20T00:36:54;-0.20;99.90
51765;DHT22;37835;53.256;6.456;2022-11-20T00:39:20;-0.20;99.90
51765;DHT22;37835;53.256;6.456;2022-11-20T00:41:45;-0.20;99.90
51765;DHT22;37835;53.256;6.456;2022-11-20T00:44:11;2.00;99.90
51765;DHT22;37835;53.256;6.456;2022-11-20T00:46:36;-0.10;99.90
51765;DHT22;37835;53.256;6.456;2022-11-20T00:49:02;-0.10;99.90
51765;DHT22;37835;53.256;6.456;2022-11-20T00:51:28;1.70;99.90
51765;DHT22;37835;53.256;6.456;2022-11-20T00:53:57;-0.10;99.90
51765;DHT22;37835;53.256;6.456;2022-11-20T00:56:23;0.00;99.90
51765;DHT22;37835;53.256;6.456;2022-11-20T00:58:49;-2.00;99.90
51765;DHT22;37835;53.256;6.456;2022-11-20T01:03:43;1.00;99.90
51765;DHT22;37835;53.256;6.456;2022-11-20T01:06:18;0.00;99.90
51765;DHT22;37835;53.256;6.456;2022-11-20T01:08:44;0.00;99.90
51765;DHT22;37835;53.256;6.456;2022-11-20T01:11:12;0.00;99.90
51765;DHT22;37835;53.256;6.456;2022-11-20T01:13:38;-1.00;99.90
51765;DHT22;37835;53.256;6.456;2022-11-20T01:16:10;0.00;99.90
51765;DHT22;37835;53.256;6.456;2022-11-20T01:18:38;0.00;99.90
51765;DHT22;37835;53.256;6.456;2022-11-20T01:21:06;0.00;99.90
51765;DHT22;37835;53.256;6.456;2022-11-20T01:23:33;0.00;99.90
51765;DHT22;37835;53.256;6.456;2022-11-20T01:26:01;0.00;99.90
51765;DHT22;37835;53.256;6.456;2022-11-20T01:28:27;-0.90;99.90
51765;DHT22;37835;53.256;6.456;2022-11-20T01:30:53;0.00;99.90
51765;DHT22;37835;53.256;6.456;2022-11-20T01:33:18;1.70;99.90
51765;DHT22;37835;53.256;6.456;2022-11-20T01:35:44;-1.00;99.90
51765;DHT22;37835;53.256;6.456;2022-11-20T01:38:09;0.00;99.90
51765;DHT22;37835;53.256;6.456;2022-11-20T01:40:35;0.10;99.90
51765;DHT22;37835;53.256;6.456;2022-11-20T01:43:21;0.00;99.90
51765;DHT22;37835;53.256;6.456;2022-11-20T01:45:52;0.00;99.90
51765;DHT22;37835;53.256;6.456;2022-11-20T01:48:23;0.00;99.90
51765;DHT22;37835;53.256;6.456;2022-11-20T01:50:50;0.00;99.90
51765;DHT22;37835;53.256;6.456;2022-11-20T01:53:18;0.00;99.90
51765;DHT22;37835;53.256;6.456;2022-11-20T01:55:50;0.00;99.90
51765;DHT22;37835;53.256;6.456;2022-11-20T01:58:20;0.00;99.90
51765;DHT22;37835;53.256;6.456;2022-11-20T02:00:47;-1.30;99.90
51765;DHT22;37835;53.256;6.456;2022-11-20T02:03:16;1.20;99.90
51765;DHT22;37835;53.256;6.456;2022-11-20T02:06:01;0.00;99.90
51765;DHT22;37835;53.256;6.456;2022-11-20T02:08:29;-1.60;99.90
51765;DHT22;37835;53.256;6.456;2022-11-20T02:10:55;1.20;99.90
51765;DHT22;37835;53.256;6.456;2022-11-20T02:13:21;1.70;99.90
51765;DHT22;37835;53.256;6.456;2022-11-20T02:16:16;0.00;99.90
51765;DHT22;37835;53.256;6.456;2022-11-20T02:18:43;0.00;99.90
51765;DHT22;37835;53.256;6.456;2022-11-20T02:21:28;1.40;99.90
51765;DHT22;37835;53.256;6.456;2022-11-20T02:24:07;0.00;99.90
51765;DHT22;37835;53.256;6.456;2022-11-20T02:26:52;-0.20;99.90
51765;DHT22;37835;53.256;6.456;2022-11-20T02:29:27;0.00;99.90
51765;DHT22;37835;53.256;6.456;2022-11-20T02:31:55;2.60;99.90
51765;DHT22;37835;53.256;6.456;2022-11-20T02:36:49;1.20;99.90
51765;DHT22;37835;53.256;6.456;2022-11-20T02:39:16;0.00;99.90
51765;DHT22;37835;53.256;6.456;2022-11-20T02:41:44;-1.80;99.90
51765;DHT22;37835;53.256;6.456;2022-11-20T02:44:10;-0.20;99.90
51765;DHT22;37835;53.256;6.456;2022-11-20T02:46:35;0.00;99.90
51765;DHT22;37835;53.256;6.456;2022-11-20T02:49:03;0.00;99.90
51765;DHT22;37835;53.256;6.456;2022-11-20T02:51:29;0.10;99.90
51765;DHT22;37835;53.256;6.456;2022-11-20T02:53:54;0.10;99.90
51765;DHT22;37835;53.256;6.456;2022-11-20T02:56:20;2.00;99.90
51765;DHT22;37835;53.256;6.456;2022-11-20T02:58:46;0.00;99.90
51765;DHT22;37835;53.256;6.456;2022-11-20T03:01:12;-0.70;99.90
51765;DHT22;37835;53.256;6.456;2022-11-20T03:03:38;0.00;99.90
51765;DHT22;37835;53.256;6.456;2022-11-20T03:06:04;0.10;99.90
51765;DHT22;37835;53.256;6.456;2022-11-20T03:08:29;0.10;99.90
51765;DHT22;37835;53.256;6.456;2022-11-20T03:10:55;0.10;99.90
51765;DHT22;37835;53.256;6.456;2022-11-20T03:13:20;0.10;99.90
51765;DHT22;37835;53.256;6.456;2022-11-20T03:15:46;0.10;99.90
51765;DHT22;37835;53.256;6.456;2022-11-20T03:18:11;0.10;99.90
51765;DHT22;37835;53.256;6.456;2022-11-20T03:20:39;0.10;99.90
51765;DHT22;37835;53.256;6.456;2022-11-20T03:23:05;0.10;99.90
51765;DHT22;37835;53.256;6.456;2022-11-20T03:25:30;0.10;99.90
51765;DHT22;37835;53.256;6.456;2022-11-20T03:27:56;0.10;99.90
51765;DHT22;37835;53.256;6.456;2022-11-20T03:30:22;0.10;99.90
51765;DHT22;37835;53.256;6.456;2022-11-20T03:32:47;0.30;99.90
51765;DHT22;37835;53.256;6.456;2022-11-20T03:35:13;-0.50;99.90
51765;DHT22;37835;53.256;6.456;2022-11-20T03:37:38;0.10;99.90
51765;DHT22;37835;53.256;6.456;2022-11-20T03:40:05;-0.40;99.90
51765;DHT22;37835;53.256;6.456;2022-11-20T03:42:30;0.10;99.90
51765;DHT22;37835;53.256;6.456;2022-11-20T03:45:15;1.50;99.90
51765;DHT22;37835;53.256;6.456;2022-11-20T03:47:41;-0.70;99.90
51765;DHT22;37835;53.256;6.456;2022-11-20T03:50:07;-0.70;99.90
51765;DHT22;37835;53.256;6.456;2022-11-20T03:52:33;0.20;99.90
51765;DHT22;37835;53.256;6.456;2022-11-20T03:54:58;0.20;99.90
51765;DHT22;37835;53.256;6.456;2022-11-20T03:57:24;0.20;99.90
51765;DHT22;37835;53.256;6.456;2022-11-20T03:59:49;2.10;99.90
51765;DHT22;37835;53.256;6.456;2022-11-20T04:02:15;0.20;99.90
51765;DHT22;37835;53.256;6.456;2022-11-20T04:04:40;0.20;99.90
51765;DHT22;37835;53.256;6.456;2022-11-20T04:07:06;0.20;99.90
51765;DHT22;37835;53.256;6.456;2022-11-20T04:09:32;0.20;99.90
51765;DHT22;37835;53.256;6.456;2022-11-20T04:11:57;0.20;99.90
51765;DHT22;37835;53.256;6.456;2022-11-20T04:14:23;-0.60;99.90
51765;DHT22;37835;53.256;6.456;2022-11-20T04:16:48;0.20;99.90
51765;DHT22;37835;53.256;6.456;2022-11-20T04:19:15;0.20;99.90
51765;DHT22;37835;53.256;6.456;2022-11-20T04:21:42;-1.60;99.90
51765;DHT22;37835;53.256;6.456;2022-11-20T04:24:08;0.20;99.90
51765;DHT22;37835;53.256;6.456;2022-11-20T04:26:34;0.90;99.90
51765;DHT22;37835;53.256;6.456;2022-11-20T04:29:00;1.10;99.90
51765;DHT22;37835;53.256;6.456;2022-11-20T04:31:31;0.20;99.90
51765;DHT22;37835;53.256;6.456;2022-11-20T04:34:01;0.20;99.90
51765;DHT22;37835;53.256;6.456;2022-11-20T04:36:28;1.40;99.90
51765;DHT22;37835;53.256;6.456;2022-11-20T04:38:56;-1.20;99.90
51765;DHT22;37835;53.256;6.456;2022-11-20T04:41:24;2.20;99.90
51765;DHT22;37835;53.256;6.456;2022-11-20T04:43:51;0.20;99.90
51765;DHT22;37835;53.256;6.456;2022-11-20T04:46:18;0.20;99.90
51765;DHT22;37835;53.256;6.456;2022-11-20T04:48:44;0.30;99.90
51765;DHT22;37835;53.256;6.456;2022-11-20T04:51:09;0.20;99.90
51765;DHT22;37835;53.256;6.456;2022-11-20T04:53:35;0.30;99.90
51765;DHT22;37835;53.256;6.456;2022-11-20T04:56:02;0.50;99.90
51765;DHT22;37835;53.256;6.456;2022-11-20T04:58:28;-1.20;99.90
51765;DHT22;37835;53.256;6.456;2022-11-20T05:01:00;0.30;99.90
51765;DHT22;37835;53.256;6.456;2022-11-20T05:03:25;0.30;99.90
51765;DHT22;37835;53.256;6.456;2022-11-20T05:05:51;0.30;99.90
51765;DHT22;37835;53.256;6.456;2022-11-20T05:08:16;0.30;99.90
51765;DHT22;37835;53.256;6.456;2022-11-20T05:10:42;0.60;99.90
51765;DHT22;37835;53.256;6.456;2022-11-20T05:13:07;0.30;99.90
51765;DHT22;37835;53.256;6.456;2022-11-20T05:15:33;1.20;99.90
51765;DHT22;37835;53.256;6.456;2022-11-20T05:17:58;1.90;99.90
51765;DHT22;37835;53.256;6.456;2022-11-20T05:20:24;0.30;99.90
51765;DHT22;37835;53.256;6.456;2022-11-20T05:22:50;0.30;99.90
51765;DHT22;37835;53.256;6.456;2022-11-20T05:25:15;0.30;99.90
51765;DHT22;37835;53.256;6.456;2022-11-20T05:27:41;1.40;99.90
51765;DHT22;37835;53.256;6.456;2022-11-20T05:30:07;0.30;99.90
51765;DHT22;37835;53.256;6.456;2022-11-20T05:32:33;0.40;99.90
51765;DHT22;37835;53.256;6.456;2022-11-20T05:34:58;0.30;99.90
51765;DHT22;37835;53.256;6.456;2022-11-20T05:37:24;0.40;99.90
51765;DHT22;37835;53.256;6.456;2022-11-20T05:39:49;1.50;99.90
51765;DHT22;37835;53.256;6.456;2022-11-20T05:42:15;0.30;99.90
51765;DHT22;37835;53.256;6.456;2022-11-20T05:45:00;0.30;99.90
51765;DHT22;37835;53.256;6.456;2022-11-20T05:47:27;2.80;99.90
51765;DHT22;37835;53.256;6.456;2022-11-20T05:49:54;-1.60;99.90
51765;DHT22;37835;53.256;6.456;2022-11-20T05:52:20;-1.90;99.90
51765;DHT22;37835;53.256;6.456;2022-11-20T05:54:45;-1.50;99.90
51765;DHT22;37835;53.256;6.456;2022-11-20T05:57:11;0.10;99.90
51765;DHT22;37835;53.256;6.456;2022-11-20T05:59:36;-0.30;99.90
51765;DHT22;37835;53.256;6.456;2022-11-20T06:02:02;0.30;99.90
51765;DHT22;37835;53.256;6.456;2022-11-20T06:04:27;0.30;99.90
51765;DHT22;37835;53.256;6.456;2022-11-20T06:06:53;1.20;99.90
51765;DHT22;37835;53.256;6.456;2022-11-20T06:09:19;0.30;99.90
51765;DHT22;37835;53.256;6.456;2022-11-20T06:11:44;0.30;99.90
51765;DHT22;37835;53.256;6.456;2022-11-20T06:14:10;1.70;99.90
51765;DHT22;37835;53.256;6.456;2022-11-20T06:16:35;1.40;99.90
51765;DHT22;37835;53.256;6.456;2022-11-20T06:19:01;0.30;99.90
51765;DHT22;37835;53.256;6.456;2022-11-20T06:21:27;0.40;99.90
51765;DHT22;37835;53.256;6.456;2022-11-20T06:23:53;0.40;99.90
51765;DHT22;37835;53.256;6.456;2022-11-20T06:26:21;0.30;99.90
51765;DHT22;37835;53.256;6.456;2022-11-20T06:28:47;0.30;99.90
51765;DHT22;37835;53.256;6.456;2022-11-20T06:31:15;0.30;99.90
51765;DHT22;37835;53.256;6.456;2022-11-20T06:33:42;0.40;99.90
51765;DHT22;37835;53.256;6.456;2022-11-20T06:36:09;1.40;99.90
51765;DHT22;37835;53.256;6.456;2022-11-20T06:38:35;0.40;99.90
51765;DHT22;37835;53.256;6.456;2022-11-20T06:41:01;0.40;99.90
51765;DHT22;37835;53.256;6.456;2022-11-20T06:43:28;2.40;99.90
51765;DHT22;37835;53.256;6.456;2022-11-20T06:45:55;-1.40;99.90
51765;DHT22;37835;53.256;6.456;2022-11-20T06:48:22;0.40;99.90
51765;DHT22;37835;53.256;6.456;2022-11-20T06:50:48;-0.60;99.90
51765;DHT22;37835;53.256;6.456;2022-11-20T06:53:14;2.10;99.90
51765;DHT22;37835;53.256;6.456;2022-11-20T06:55:47;0.40;99.90
51765;DHT22;37835;53.256;6.456;2022-11-20T06:58:14;0.50;99.90
51765;DHT22;37835;53.256;6.456;2022-11-20T07:00:39;0.50;99.90
51765;DHT22;37835;53.256;6.456;2022-11-20T07:03:06;0.50;99.90
51765;DHT22;37835;53.256;6.456;2022-11-20T07:05:33;0.80;99.90
51765;DHT22;37835;53.256;6.456;2022-11-20T07:07:59;0.20;99.90
51765;DHT22;37835;53.256;6.456;2022-11-20T07:10:25;0.50;99.90
51765;DHT22;37835;53.256;6.456;2022-11-20T07:12:52;0.70;99.90
51765;DHT22;37835;53.256;6.456;2022-11-20T07:15:21;0.50;99.90
51765;DHT22;37835;53.256;6.456;2022-11-20T07:17:47;0.50;99.90
51765;DHT22;37835;53.256;6.456;2022-11-20T07:20:14;0.50;99.90
51765;DHT22;37835;53.256;6.456;2022-11-20T07:22:40;2.70;99.90
51765;DHT22;37835;53.256;6.456;2022-11-20T07:25:06;0.50;99.90
51765;DHT22;37835;53.256;6.456;2022-11-20T07:27:31;0.60;99.90
51765;DHT22;37835;53.256;6.456;2022-11-20T07:29:57;2.60;99.90
51765;DHT22;37835;53.256;6.456;2022-11-20T07:32:23;0.50;99.90
51765;DHT22;37835;53.256;6.456;2022-11-20T07:34:48;0.60;99.90
51765;DHT22;37835;53.256;6.456;2022-11-20T07:37:14;0.60;99.90
51765;DHT22;37835;53.256;6.456;2022-11-20T07:39:40;0.60;99.90
51765;DHT22;37835;53.256;6.456;2022-11-20T07:42:06;0.60;99.90
51765;DHT22;37835;53.256;6.456;2022-11-20T07:44:32;0.60;99.90
51765;DHT22;37835;53.256;6.456;2022-11-20T07:46:58;0.60;99.90
51765;DHT22;37835;53.256;6.456;2022-11-20T07:49:24;0.60;99.90
51765;DHT22;37835;53.256;6.456;2022-11-20T07:51:53;0.60;99.90
51765;DHT22;37835;53.256;6.456;2022-11-20T07:54:19;0.70;99.90
51765;DHT22;37835;53.256;6.456;2022-11-20T07:56:46;0.60;99.90
51765;DHT22;37835;53.256;6.456;2022-11-20T07:59:11;0.70;99.90
51765;DHT22;37835;53.256;6.456;2022-11-20T08:01:38;-1.20;99.90
51765;DHT22;37835;53.256;6.456;2022-11-20T08:04:04;0.70;99.90
51765;DHT22;37835;53.256;6.456;2022-11-20T08:06:30;0.60;99.90
51765;DHT22;37835;53.256;6.456;2022-11-20T08:08:55;0.70;99.90
51765;DHT22;37835;53.256;6.456;2022-11-20T08:11:21;0.70;99.90
51765;DHT22;37835;53.256;6.456;2022-11-20T08:14:05;0.70;99.90
51765;DHT22;37835;53.256;6.456;2022-11-20T08:16:37;0.80;99.90
51765;DHT22;37835;53.256;6.456;2022-11-20T08:19:02;0.90;99.90
51765;DHT22;37835;53.256;6.456;2022-11-20T08:21:29;1.00;99.90
51765;DHT22;37835;53.256;6.456;2022-11-20T08:23:55;0.90;99.90
51765;DHT22;37835;53.256;6.456;2022-11-20T08:31:13;0.80;99.90
51765;DHT22;37835;53.256;6.456;2022-11-20T08:33:39;0.80;99.90
51765;DHT22;37835;53.256;6.456;2022-11-20T08:36:06;0.80;99.90
51765;DHT22;37835;53.256;6.456;2022-11-20T08:38:32;0.90;99.90
51765;DHT22;37835;53.256;6.456;2022-11-20T08:40:59;0.80;99.90
51765;DHT22;37835;53.256;6.456;2022-11-20T08:43:44;0.80;99.90
51765;DHT22;37835;53.256;6.456;2022-11-20T08:46:10;0.90;99.90
51765;DHT22;37835;53.256;6.456;2022-11-20T08:48:35;2.60;99.90
51765;DHT22;37835;53.256;6.456;2022-11-20T08:51:01;0.90;99.90
51765;DHT22;37835;53.256;6.456;2022-11-20T08:53:27;0.90;99.90
51765;DHT22;37835;53.256;6.456;2022-11-20T08:55:53;0.90;99.90
51765;DHT22;37835;53.256;6.456;2022-11-20T08:58:18;1.00;99.90
51765;DHT22;37835;53.256;6.456;2022-11-20T09:00:44;0.90;99.90
51765;DHT22;37835;53.256;6.456;2022-11-20T09:03:09;0.90;99.90
51765;DHT22;37835;53.256;6.456;2022-11-20T09:05:35;1.10;99.90
51765;DHT22;37835;53.256;6.456;2022-11-20T09:08:01;1.10;99.90
51765;DHT22;37835;53.256;6.456;2022-11-20T09:10:27;1.10;99.90
51765;DHT22;37835;53.256;6.456;2022-11-20T09:12:53;1.10;99.90
51765;DHT22;37835;53.256;6.456;2022-11-20T09:15:19;1.00;99.90
51765;DHT22;37835;53.256;6.456;2022-11-20T09:17:54;0.90;99.90
51765;DHT22;37835;53.256;6.456;2022-11-20T09:20:20;1.10;99.90
51765;DHT22;37835;53.256;6.456;2022-11-20T09:22:46;1.00;99.90
51765;DHT22;37835;53.256;6.456;2022-11-20T09:25:11;1.10;99.90
51765;DHT22;37835;53.256;6.456;2022-11-20T09:27:37;1.10;99.90
51765;DHT22;37835;53.256;6.456;2022-11-20T09:30:03;1.10;99.90
51765;DHT22;37835;53.256;6.456;2022-11-20T09:32:29;3.30;99.90
51765;DHT22;37835;53.256;6.456;2022-11-20T09:34:54;1.10;99.90
51765;DHT22;37835;53.256;6.456;2022-11-20T09:37:20;1.20;99.90
51765;DHT22;37835;53.256;6.456;2022-11-20T09:39:45;1.20;99.90
51765;DHT22;37835;53.256;6.456;2022-11-20T09:42:44;1.20;99.90
51765;DHT22;37835;53.256;6.456;2022-11-20T09:45:37;1.30;99.90
51765;DHT22;37835;53.256;6.456;2022-11-20T09:48:31;1.20;99.90
51765;DHT22;37835;53.256;6.456;2022-11-20T09:53:44;1.20;99.90
51765;DHT22;37835;53.256;6.456;2022-11-20T09:56:11;1.30;99.90
51765;DHT22;37835;53.256;6.456;2022-11-20T09:58:56;1.40;99.90
51765;DHT22;37835;53.256;6.456;2022-11-20T10:01:26;1.40;99.90
51765;DHT22;37835;53.256;6.456;2022-11-20T10:04:04;1.40;99.90
51765;DHT22;37835;53.256;6.456;2022-11-20T10:09:18;0.80;99.90
51765;DHT22;37835;53.256;6.456;2022-11-20T10:14:30;1.50;99.90
51765;DHT22;37835;53.256;6.456;2022-11-20T10:20:32;1.60;99.90
51765;DHT22;37835;53.256;6.456;2022-11-20T10:23:11;1.60;99.90
51765;DHT22;37835;53.256;6.456;2022-11-20T10:26:04;2.00;99.90
51765;DHT22;37835;53.256;6.456;2022-11-20T10:31:34;1.80;99.90
51765;DHT22;37835;53.256;6.456;2022-11-20T10:34:08;1.90;99.90
51765;DHT22;37835;53.256;6.456;2022-11-20T10:36:44;1.60;99.90
51765;DHT22;37835;53.256;6.456;2022-11-20T10:42:16;1.90;99.90
51765;DHT22;37835;53.256;6.456;2022-11-20T10:44:50;1.90;99.90
51765;DHT22;37835;53.256;6.456;2022-11-20T10:47:28;1.90;99.90
51765;DHT22;37835;53.256;6.456;2022-11-20T10:50:01;2.00;99.90
51765;DHT22;37835;53.256;6.456;2022-11-20T10:55:25;3.30;99.90
51765;DHT22;37835;53.256;6.456;2022-11-20T10:58:13;2.20;99.90
51765;DHT22;37835;53.256;6.456;2022-11-20T11:00:39;2.20;99.90
51765;DHT22;37835;53.256;6.456;2022-11-20T11:03:25;2.30;99.90
51765;DHT22;37835;53.256;6.456;2022-11-20T11:06:10;3.70;99.90
51765;DHT22;37835;53.256;6.456;2022-11-20T11:08:39;2.30;99.90
51765;DHT22;37835;53.256;6.456;2022-11-20T11:11:26;0.70;99.90
51765;DHT22;37835;53.256;6.456;2022-11-20T11:13:53;2.40;99.90
51765;DHT22;37835;53.256;6.456;2022-11-20T11:16:26;2.10;99.90
51765;DHT22;37835;53.256;6.456;2022-11-20T11:19:06;2.40;99.90
51765;DHT22;37835;53.256;6.456;2022-11-20T11:21:33;2.40;99.90
51765;DHT22;37835;53.256;6.456;2022-11-20T11:24:02;2.40;99.90
51765;DHT22;37835;53.256;6.456;2022-11-20T11:26:28;3.20;99.90
51765;DHT22;37835;53.256;6.456;2022-11-20T11:29:04;2.40;99.90
51765;DHT22;37835;53.256;6.456;2022-11-20T11:31:32;2.40;99.90
51765;DHT22;37835;53.256;6.456;2022-11-20T11:34:14;2.30;99.90
51765;DHT22;37835;53.256;6.456;2022-11-20T11:36:41;2.30;99.90
51765;DHT22;37835;53.256;6.456;2022-11-20T11:39:14;4.00;99.90
51765;DHT22;37835;53.256;6.456;2022-11-20T11:41:40;4.20;99.90
51765;DHT22;37835;53.256;6.456;2022-11-20T11:44:27;2.20;99.90
51765;DHT22;37835;53.256;6.456;2022-11-20T11:47:25;2.20;99.90
51765;DHT22;37835;53.256;6.456;2022-11-20T11:50:21;2.10;99.90
51765;DHT22;37835;53.256;6.456;2022-11-20T11:53:05;2.10;99.90
51765;DHT22;37835;53.256;6.456;2022-11-20T11:55:57;2.00;99.90
51765;DHT22;37835;53.256;6.456;2022-11-20T11:58:47;-0.30;99.90
51765;DHT22;37835;53.256;6.456;2022-11-20T12:06:57;2.00;99.90
51765;DHT22;37835;53.256;6.456;2022-11-20T12:09:29;3.50;99.90
51765;DHT22;37835;53.256;6.456;2022-11-20T12:12:08;2.40;99.90
51765;DHT22;37835;53.256;6.456;2022-11-20T12:14:37;1.30;99.90
51765;DHT22;37835;53.256;6.456;2022-11-20T12:17:04;3.30;99.90
51765;DHT22;37835;53.256;6.456;2022-11-20T12:19:34;2.30;99.90
51765;DHT22;37835;53.256;6.456;2022-11-20T12:22:23;2.30;99.90
51765;DHT22;37835;53.256;6.456;2022-11-20T12:25:16;2.40;99.90
51765;DHT22;37835;53.256;6.456;2022-11-20T12:30:47;2.50;99.90
51765;DHT22;37835;53.256;6.456;2022-11-20T12:33:34;2.30;99.90
51765;DHT22;37835;53.256;6.456;2022-11-20T12:36:27;3.50;99.90
51765;DHT22;37835;53.256;6.456;2022-11-20T12:45:12;2.90;99.90
51765;DHT22;37835;53.256;6.456;2022-11-20T12:50:30;2.90;99.90
51765;DHT22;37835;53.256;6.456;2022-11-20T13:01:47;3.00;99.90
51765;DHT22;37835;53.256;6.456;2022-11-20T13:07:05;3.00;99.90
51765;DHT22;37835;53.256;6.456;2022-11-20T13:09:33;3.00;99.90
51765;DHT22;37835;53.256;6.456;2022-11-20T13:12:14;3.00;99.90
51765;DHT22;37835;53.256;6.456;2022-11-20T13:15:04;3.10;99.90
51765;DHT22;37835;53.256;6.456;2022-11-20T13:17:43;3.10;99.90
51765;DHT22;37835;53.256;6.456;2022-11-20T13:20:15;3.60;99.90
51765;DHT22;37835;53.256;6.456;2022-11-20T13:22:53;3.10;99.90
51765;DHT22;37835;53.256;6.456;2022-11-20T13:25:39;3.10;99.90
51765;DHT22;37835;53.256;6.456;2022-11-20T13:30:37;3.20;99.90
51765;DHT22;37835;53.256;6.456;2022-11-20T13:33:30;3.20;99.90
51765;DHT22;37835;53.256;6.456;2022-11-20T13:36:07;1.60;99.90
51765;DHT22;37835;53.256;6.456;2022-11-20T13:38:50;3.20;99.90
51765;DHT22;37835;53.256;6.456;2022-11-20T13:41:36;3.40;99.90
51765;DHT22;37835;53.256;6.456;2022-11-20T13:44:29;3.20;99.90
51765;DHT22;37835;53.256;6.456;2022-11-20T13:46:54;3.80;99.90
51765;DHT22;37835;53.256;6.456;2022-11-20T13:49:25;3.20;99.90
51765;DHT22;37835;53.256;6.456;2022-11-20T13:51:57;3.20;99.90
51765;DHT22;37835;53.256;6.456;2022-11-20T14:00:23;3.20;99.90
51765;DHT22;37835;53.256;6.456;2022-11-20T14:05:26;3.20;99.90
51765;DHT22;37835;53.256;6.456;2022-11-20T14:07:53;3.20;99.90
51765;DHT22;37835;53.256;6.456;2022-11-20T14:12:45;3.20;99.90
51765;DHT22;37835;53.256;6.456;2022-11-20T14:15:30;3.20;99.90
51765;DHT22;37835;53.256;6.456;2022-11-20T14:17:57;3.20;99.90
51765;DHT22;37835;53.256;6.456;2022-11-20T14:20:28;3.20;99.90
51765;DHT22;37835;53.256;6.456;2022-11-20T14:22:55;3.20;99.90
51765;DHT22;37835;53.256;6.456;2022-11-20T14:25:23;3.20;99.90
51765;DHT22;37835;53.256;6.456;2022-11-20T14:27:54;3.20;99.90
51765;DHT22;37835;53.256;6.456;2022-11-20T14:30:26;3.20;99.90
51765;DHT22;37835;53.256;6.456;2022-11-20T14:32:54;3.10;99.90
51765;DHT22;37835;53.256;6.456;2022-11-20T14:35:25;3.10;99.90
51765;DHT22;37835;53.256;6.456;2022-11-20T14:37:51;3.10;99.90
51765;DHT22;37835;53.256;6.456;2022-11-20T14:40:30;3.10;99.90
51765;DHT22;37835;53.256;6.456;2022-11-20T14:42:57;3.90;99.90
51765;DHT22;37835;53.256;6.456;2022-11-20T14:45:24;3.30;99.90
51765;DHT22;37835;53.256;6.456;2022-11-20T14:47:52;3.00;99.90
51765;DHT22;37835;53.256;6.456;2022-11-20T14:50:28;3.00;99.90
51765;DHT22;37835;53.256;6.456;2022-11-20T14:52:56;3.00;99.90
51765;DHT22;37835;53.256;6.456;2022-11-20T14:55:37;2.90;99.90
51765;DHT22;37835;53.256;6.456;2022-11-20T14:58:21;2.90;99.90
51765;DHT22;37835;53.256;6.456;2022-11-20T15:00:59;2.80;99.90
51765;DHT22;37835;53.256;6.456;2022-11-20T15:03:35;2.90;99.90
51765;DHT22;37835;53.256;6.456;2022-11-20T15:06:02;2.90;99.90
51765;DHT22;37835;53.256;6.456;2022-11-20T15:08:28;2.80;99.90
51765;DHT22;37835;53.256;6.456;2022-11-20T15:10:55;3.50;99.90
51765;DHT22;37835;53.256;6.456;2022-11-20T15:13:34;2.80;99.90
51765;DHT22;37835;53.256;6.456;2022-11-20T15:16:02;2.40;99.90
51765;DHT22;37835;53.256;6.456;2022-11-20T15:18:37;2.50;99.90
51765;DHT22;37835;53.256;6.456;2022-11-20T15:21:08;2.70;99.90
51765;DHT22;37835;53.256;6.456;2022-11-20T15:23:34;2.70;99.90
51765;DHT22;37835;53.256;6.456;2022-11-20T15:26:00;3.00;99.90
51765;DHT22;37835;53.256;6.456;2022-11-20T15:30:57;2.60;99.90
51765;DHT22;37835;53.256;6.456;2022-11-20T15:33:24;2.60;99.90
51765;DHT22;37835;53.256;6.456;2022-11-20T15:35:49;2.60;99.90
51765;DHT22;37835;53.256;6.456;2022-11-20T15:38:15;1.20;99.90
51765;DHT22;37835;53.256;6.456;2022-11-20T15:40:41;2.50;99.90
51765;DHT22;37835;53.256;6.456;2022-11-20T15:43:06;2.50;99.90
51765;DHT22;37835;53.256;6.456;2022-11-20T15:45:39;3.70;99.90
51765;DHT22;37835;53.256;6.456;2022-11-20T15:48:10;3.50;99.90
51765;DHT22;37835;53.256;6.456;2022-11-20T15:50:39;4.00;99.90
51765;DHT22;37835;53.256;6.456;2022-11-20T15:53:09;2.40;99.90
51765;DHT22;37835;53.256;6.456;2022-11-20T15:55:35;2.40;99.90
51765;DHT22;37835;53.256;6.456;2022-11-20T15:58:02;2.40;99.90
51765;DHT22;37835;53.256;6.456;2022-11-20T16:00:27;2.40;99.90
51765;DHT22;37835;53.256;6.456;2022-11-20T16:02:53;2.30;99.90
51765;DHT22;37835;53.256;6.456;2022-11-20T16:05:19;2.90;99.90
51765;DHT22;37835;53.256;6.456;2022-11-20T16:07:45;2.30;99.90
51765;DHT22;37835;53.256;6.456;2022-11-20T16:10:14;1.00;99.90
51765;DHT22;37835;53.256;6.456;2022-11-20T16:12:40;2.20;99.90
51765;DHT22;37835;53.256;6.456;2022-11-20T16:15:24;2.30;99.90
51765;DHT22;37835;53.256;6.456;2022-11-20T16:18:12;2.20;99.90
51765;DHT22;37835;53.256;6.456;2022-11-20T16:20:42;2.20;99.90
51765;DHT22;37835;53.256;6.456;2022-11-20T16:23:08;2.20;99.90
51765;DHT22;37835;53.256;6.456;2022-11-20T16:25:33;2.20;99.90
51765;DHT22;37835;53.256;6.456;2022-11-20T16:27:59;2.20;99.90
51765;DHT22;37835;53.256;6.456;2022-11-20T16:30:26;2.20;99.90
51765;DHT22;37835;53.256;6.456;2022-11-20T16:32:51;2.20;99.90
51765;DHT22;37835;53.256;6.456;2022-11-20T16:35:17;2.60;99.90
51765;DHT22;37835;53.256;6.456;2022-11-20T16:37:43;2.20;99.90
51765;DHT22;37835;53.256;6.456;2022-11-20T16:40:11;2.90;99.90
51765;DHT22;37835;53.256;6.456;2022-11-20T16:42:37;2.20;99.90
51765;DHT22;37835;53.256;6.456;2022-11-20T16:45:03;2.20;99.90
51765;DHT22;37835;53.256;6.456;2022-11-20T16:47:34;2.20;99.90
51765;DHT22;37835;53.256;6.456;2022-11-20T16:50:01;2.10;99.90
51765;DHT22;37835;53.256;6.456;2022-11-20T16:52:27;2.20;99.90
51765;DHT22;37835;53.256;6.456;2022-11-20T16:54:52;1.90;99.90
51765;DHT22;37835;53.256;6.456;2022-11-20T16:57:18;2.10;99.90
51765;DHT22;37835;53.256;6.456;2022-11-20T16:59:44;2.10;99.90
51765;DHT22;37835;53.256;6.456;2022-11-20T17:02:09;2.30;99.90
51765;DHT22;37835;53.256;6.456;2022-11-20T17:04:35;2.10;99.90
51765;DHT22;37835;53.256;6.456;2022-11-20T17:07:01;2.10;99.90
51765;DHT22;37835;53.256;6.456;2022-11-20T17:09:28;2.10;99.90
51765;DHT22;37835;53.256;6.456;2022-11-20T17:11:53;2.10;99.90
51765;DHT22;37835;53.256;6.456;2022-11-20T17:14:19;1.80;99.90
51765;DHT22;37835;53.256;6.456;2022-11-20T17:16:45;3.70;99.90